Time;durP1;ratioP1;P1;durP2;ratioP2;P2;SDS_P1;SDS_P2;PMS_P1;PMS_P2;Temp;Humidity;BMP_temperature;BMP_pressure;BME280_temperature;BME280_humidity;BME280_pressure;Samples;Min_cycle;Max_cycle;Signal;HPM_P1;HPM_P2
2019/08/10 00:00:00;;;;;;;4.1;3.25;;;;;;;23.49;65.47266;94964.51;;;;
2019/08/10 00:01:05;;;;;;;4.1;3.25;;;;;;;23.49;65.47266;94964.51;;;;
2019/08/10 00:02:07;;;;;;;4.1;3.25;;;;;;;23.49;65.47266;94964.51;;;;
2019/08/10 00:03:08;;;;;;;4.1;3.25;;;;;;;23.49;65.47266;94964.51;;;;
2019/08/10 00:04:09;;;;;;;4.1;3.25;;;;;;;23.49;65.47266;94964.51;;;;
2019/08/10 00:05:11;;;;;;;4.1;3.25;;;;;;;23.49;65.47266;94964.51;;;;
2019/08/10 00:06:13;;;;;;;4.1;3.25;;;;;;;23.49;65.47266;94964.51;;;;
2019/08/10 00:07:14;;;;;;;4.1;3.25;;;;;;;23.49;65.47266;94964.51;;;;
2019/08/10 00:08:15;;;;;;;4.1;3.25;;;;;;;23.49;65.47266;94964.51;;;;
2019/08/10 00:09:16;;;;;;;4.149999;3.5;;;;;;;23.38;66.04102;95001.39;;;;
2019/08/10 00:10:17;;;;;;;4.149999;3.5;;;;;;;23.38;66.04102;95001.39;;;;
2019/08/10 00:11:19;;;;;;;4.149999;3.5;;;;;;;23.38;66.04102;95001.39;;;;
2019/08/10 00:12:21;;;;;;;4.149999;3.5;;;;;;;23.38;66.04102;95001.39;;;;
2019/08/10 00:13:22;;;;;;;4.149999;3.5;;;;;;;23.38;66.04102;95001.39;;;;
2019/08/10 00:14:23;;;;;;;4.149999;3.5;;;;;;;23.38;66.04102;95001.39;;;;
2019/08/10 00:15:24;;;;;;;4.149999;3.5;;;;;;;23.38;66.04102;95001.39;;;;
2019/08/10 00:16:29;;;;;;;4.149999;3.5;;;;;;;23.38;66.04102;95001.39;;;;
2019/08/10 00:17:30;;;;;;;4.149999;3.5;;;;;;;23.38;66.04102;95001.39;;;;
2019/08/10 00:18:31;;;;;;;4.149999;3.5;;;;;;;23.38;66.04102;95001.39;;;;
2019/08/10 00:19:32;;;;;;;3.5;3.2;;;;;;;23.37;66.30371;94997.4;;;;
2019/08/10 00:20:33;;;;;;;3.5;3.2;;;;;;;23.37;66.30371;94997.4;;;;
2019/08/10 00:21:37;;;;;;;3.5;3.2;;;;;;;23.37;66.30371;94997.4;;;;
2019/08/10 00:22:38;;;;;;;3.5;3.2;;;;;;;23.37;66.30371;94997.4;;;;
2019/08/10 00:23:40;;;;;;;3.5;3.2;;;;;;;23.37;66.30371;94997.4;;;;
2019/08/10 00:24:41;;;;;;;3.5;3.2;;;;;;;23.37;66.30371;94997.4;;;;
2019/08/10 00:25:42;;;;;;;3.5;3.2;;;;;;;23.37;66.30371;94997.4;;;;
2019/08/10 00:26:43;;;;;;;3.5;3.2;;;;;;;23.37;66.30371;94997.4;;;;
2019/08/10 00:27:44;;;;;;;3.5;3.2;;;;;;;23.37;66.30371;94997.4;;;;
2019/08/10 00:28:46;;;;;;;3.5;3.2;;;;;;;23.37;66.30371;94997.4;;;;
2019/08/10 00:29:47;;;;;;;3.75;3;;;;;;;23.19;67.25;94982.36;;;;
2019/08/10 00:30:48;;;;;;;3.75;3;;;;;;;23.19;67.25;94982.36;;;;
2019/08/10 00:31:50;;;;;;;3.75;3;;;;;;;23.19;67.25;94982.36;;;;
2019/08/10 00:32:52;;;;;;;3.75;3;;;;;;;23.19;67.25;94982.36;;;;
2019/08/10 00:33:53;;;;;;;3.75;3;;;;;;;23.19;67.25;94982.36;;;;
2019/08/10 00:34:54;;;;;;;3.75;3;;;;;;;23.19;67.25;94982.36;;;;
2019/08/10 00:35:55;;;;;;;3.75;3;;;;;;;23.19;67.25;94982.36;;;;
2019/08/10 00:36:56;;;;;;;3.75;3;;;;;;;23.19;67.25;94982.36;;;;
2019/08/10 00:37:57;;;;;;;3.75;3;;;;;;;23.19;67.25;94982.36;;;;
2019/08/10 00:38:59;;;;;;;3.75;3;;;;;;;23.19;67.25;94982.36;;;;
2019/08/10 00:40:00;;;;;;;3.75;3;;;;;;;23.19;67.25;94982.36;;;;
2019/08/10 00:41:01;;;;;;;3.8;3.4;;;;;;;22.94;68.52441;94968.94;;;;
2019/08/10 00:42:03;;;;;;;3.8;3.4;;;;;;;22.94;68.52441;94968.94;;;;
2019/08/10 00:43:04;;;;;;;3.8;3.4;;;;;;;22.94;68.52441;94968.94;;;;
2019/08/10 00:44:06;;;;;;;3.8;3.4;;;;;;;22.94;68.52441;94968.94;;;;
2019/08/10 00:45:07;;;;;;;3.8;3.4;;;;;;;22.94;68.52441;94968.94;;;;
2019/08/10 00:46:56;;;;;;;3.8;3.4;;;;;;;22.94;68.52441;94968.94;;;;
2019/08/10 00:49:08;;;;;;;3.8;3.4;;;;;;;22.94;68.52441;94968.94;;;;
2019/08/10 00:50:27;;;;;;;3.8;3.4;;;;;;;22.94;68.52441;94968.94;;;;
2019/08/10 00:51:29;;;;;;;3.55;3.25;;;;;;;22.65;69.96777;94962.62;;;;
2019/08/10 00:52:30;;;;;;;3.55;3.25;;;;;;;22.65;69.96777;94962.62;;;;
2019/08/10 00:53:31;;;;;;;3.55;3.25;;;;;;;22.65;69.96777;94962.62;;;;
2019/08/10 00:54:32;;;;;;;3.55;3.25;;;;;;;22.65;69.96777;94962.62;;;;
2019/08/10 00:55:33;;;;;;;3.55;3.25;;;;;;;22.65;69.96777;94962.62;;;;
2019/08/10 00:56:35;;;;;;;3.55;3.25;;;;;;;22.65;69.96777;94962.62;;;;
2019/08/10 00:57:36;;;;;;;3.55;3.25;;;;;;;22.65;69.96777;94962.62;;;;
2019/08/10 00:58:37;;;;;;;3.55;3.25;;;;;;;22.65;69.96777;94962.62;;;;
2019/08/10 00:59:38;;;;;;;3.55;3.25;;;;;;;22.65;69.96777;94962.62;;;;
2019/08/10 01:00:39;;;;;;;3.55;3.25;;;;;;;22.65;69.96777;94962.62;;;;
2019/08/10 01:02:08;;;;;;;3.55;3.25;;;;;;;22.54;71.52441;94957.14;;;;
2019/08/10 01:03:09;;;;;;;3.55;3.25;;;;;;;22.54;71.52441;94957.14;;;;
2019/08/10 01:04:10;;;;;;;3.55;3.25;;;;;;;22.54;71.52441;94957.14;;;;
2019/08/10 01:05:15;;;;;;;3.55;3.25;;;;;;;22.54;71.52441;94957.14;;;;
2019/08/10 01:06:16;;;;;;;3.55;3.25;;;;;;;22.54;71.52441;94957.14;;;;
2019/08/10 01:07:17;;;;;;;3.55;3.25;;;;;;;22.54;71.52441;94957.14;;;;
2019/08/10 01:08:19;;;;;;;3.55;3.25;;;;;;;22.54;71.52441;94957.14;;;;
2019/08/10 01:09:20;;;;;;;3.55;3.25;;;;;;;22.54;71.52441;94957.14;;;;
2019/08/10 01:10:21;;;;;;;3.55;3.25;;;;;;;22.54;71.52441;94957.14;;;;
2019/08/10 01:11:23;;;;;;;3.55;3.25;;;;;;;22.54;71.52441;94957.14;;;;
2019/08/10 01:12:25;;;;;;;3.400001;3.1;;;;;;;22.44;72.72754;94982.34;;;;
2019/08/10 01:13:26;;;;;;;3.400001;3.1;;;;;;;22.44;72.72754;94982.34;;;;
2019/08/10 01:14:27;;;;;;;3.400001;3.1;;;;;;;22.44;72.72754;94982.34;;;;
2019/08/10 01:15:28;;;;;;;3.400001;3.1;;;;;;;22.44;72.72754;94982.34;;;;
2019/08/10 01:16:30;;;;;;;3.400001;3.1;;;;;;;22.44;72.72754;94982.34;;;;
2019/08/10 01:17:31;;;;;;;3.400001;3.1;;;;;;;22.44;72.72754;94982.34;;;;
2019/08/10 01:18:32;;;;;;;3.400001;3.1;;;;;;;22.44;72.72754;94982.34;;;;
2019/08/10 01:19:33;;;;;;;3.400001;3.1;;;;;;;22.44;72.72754;94982.34;;;;
2019/08/10 01:20:34;;;;;;;3.400001;3.1;;;;;;;22.44;72.72754;94982.34;;;;
2019/08/10 01:21:39;;;;;;;3.400001;3.1;;;;;;;22.44;72.72754;94982.34;;;;
2019/08/10 01:22:41;;;;;;;4.25;3.4;;;;;;;22.4;74.1748;94997.71;;;;
2019/08/10 01:23:42;;;;;;;4.25;3.4;;;;;;;22.4;74.1748;94997.71;;;;
2019/08/10 01:24:43;;;;;;;4.25;3.4;;;;;;;22.4;74.1748;94997.71;;;;
2019/08/10 01:25:44;;;;;;;4.25;3.4;;;;;;;22.4;74.1748;94997.71;;;;
2019/08/10 01:26:46;;;;;;;4.25;3.4;;;;;;;22.4;74.1748;94997.71;;;;
2019/08/10 01:27:47;;;;;;;4.25;3.4;;;;;;;22.4;74.1748;94997.71;;;;
2019/08/10 01:28:48;;;;;;;4.25;3.4;;;;;;;22.4;74.1748;94997.71;;;;
2019/08/10 01:29:49;;;;;;;4.25;3.4;;;;;;;22.4;74.1748;94997.71;;;;
2019/08/10 01:30:50;;;;;;;4.25;3.4;;;;;;;22.4;74.1748;94997.71;;;;
2019/08/10 01:31:51;;;;;;;4.25;3.4;;;;;;;22.4;74.1748;94997.71;;;;
2019/08/10 01:32:53;;;;;;;4.25;3.4;;;;;;;22.4;74.1748;94997.71;;;;
2019/08/10 01:33:55;;;;;;;3.75;3.45;;;;;;;22.34;75.05371;95009.97;;;;
2019/08/10 01:34:56;;;;;;;3.75;3.45;;;;;;;22.34;75.05371;95009.97;;;;
2019/08/10 01:35:57;;;;;;;3.75;3.45;;;;;;;22.34;75.05371;95009.97;;;;
2019/08/10 01:36:58;;;;;;;3.75;3.45;;;;;;;22.34;75.05371;95009.97;;;;
2019/08/10 01:38:00;;;;;;;3.75;3.45;;;;;;;22.34;75.05371;95009.97;;;;
2019/08/10 01:39:01;;;;;;;3.75;3.45;;;;;;;22.34;75.05371;95009.97;;;;
2019/08/10 01:40:06;;;;;;;3.75;3.45;;;;;;;22.34;75.05371;95009.97;;;;
2019/08/10 01:41:11;;;;;;;3.75;3.45;;;;;;;22.34;75.05371;95009.97;;;;
2019/08/10 01:42:12;;;;;;;3.75;3.45;;;;;;;22.34;75.05371;95009.97;;;;
2019/08/10 01:43:13;;;;;;;3.75;3.45;;;;;;;22.34;75.05371;95009.97;;;;
2019/08/10 01:44:14;;;;;;;3.9;3.400001;;;;;;;22.41;76.12109;94998.53;;;;
2019/08/10 01:45:15;;;;;;;3.9;3.400001;;;;;;;22.41;76.12109;94998.53;;;;
2019/08/10 01:46:17;;;;;;;3.9;3.400001;;;;;;;22.41;76.12109;94998.53;;;;
2019/08/10 01:47:18;;;;;;;3.9;3.400001;;;;;;;22.41;76.12109;94998.53;;;;
2019/08/10 01:48:20;;;;;;;3.9;3.400001;;;;;;;22.41;76.12109;94998.53;;;;
2019/08/10 01:49:21;;;;;;;3.9;3.400001;;;;;;;22.41;76.12109;94998.53;;;;
2019/08/10 01:50:22;;;;;;;3.9;3.400001;;;;;;;22.41;76.12109;94998.53;;;;
2019/08/10 01:51:28;;;;;;;3.9;3.400001;;;;;;;22.41;76.12109;94998.53;;;;
2019/08/10 01:52:29;;;;;;;3.9;3.400001;;;;;;;22.41;76.12109;94998.53;;;;
2019/08/10 01:53:30;;;;;;;3.9;3.400001;;;;;;;22.41;76.12109;94998.53;;;;
2019/08/10 01:54:31;;;;;;;5;3.4;;;;;;;22.37;76.36621;94997.53;;;;
2019/08/10 01:55:32;;;;;;;5;3.4;;;;;;;22.37;76.36621;94997.53;;;;
2019/08/10 01:56:34;;;;;;;5;3.4;;;;;;;22.37;76.36621;94997.53;;;;
2019/08/10 01:57:36;;;;;;;5;3.4;;;;;;;22.37;76.36621;94997.53;;;;
2019/08/10 01:58:37;;;;;;;5;3.4;;;;;;;22.37;76.36621;94997.53;;;;
2019/08/10 01:59:38;;;;;;;5;3.4;;;;;;;22.37;76.36621;94997.53;;;;
2019/08/10 02:00:39;;;;;;;5;3.4;;;;;;;22.37;76.36621;94997.53;;;;
2019/08/10 02:01:44;;;;;;;5;3.4;;;;;;;22.37;76.36621;94997.53;;;;
2019/08/10 02:02:46;;;;;;;5;3.4;;;;;;;22.37;76.36621;94997.53;;;;
2019/08/10 02:03:47;;;;;;;5;3.4;;;;;;;22.37;76.36621;94997.53;;;;
2019/08/10 02:05:24;;;;;;;5;3.4;;;;;;;22.37;76.36621;94997.53;;;;
2019/08/10 02:06:31;;;;;;;4.3;3.6;;;;;;;22.37;77.00293;95011.3;;;;
2019/08/10 02:07:32;;;;;;;4.3;3.6;;;;;;;22.37;77.00293;95011.3;;;;
2019/08/10 02:08:33;;;;;;;4.3;3.6;;;;;;;22.37;77.00293;95011.3;;;;
2019/08/10 02:09:37;;;;;;;4.3;3.6;;;;;;;22.37;77.00293;95011.3;;;;
2019/08/10 02:10:39;;;;;;;4.3;3.6;;;;;;;22.37;77.00293;95011.3;;;;
2019/08/10 02:11:40;;;;;;;4.3;3.6;;;;;;;22.37;77.00293;95011.3;;;;
2019/08/10 02:12:42;;;;;;;4.3;3.6;;;;;;;22.37;77.00293;95011.3;;;;
2019/08/10 02:13:43;;;;;;;4.3;3.6;;;;;;;22.37;77.00293;95011.3;;;;
2019/08/10 02:14:44;;;;;;;4.3;3.6;;;;;;;22.37;77.00293;95011.3;;;;
2019/08/10 02:15:45;;;;;;;4.05;3.299999;;;;;;;22.3;77.28809;95024.55;;;;
2019/08/10 02:16:47;;;;;;;4.05;3.299999;;;;;;;22.3;77.28809;95024.55;;;;
2019/08/10 02:17:48;;;;;;;4.05;3.299999;;;;;;;22.3;77.28809;95024.55;;;;
2019/08/10 02:18:49;;;;;;;4.05;3.299999;;;;;;;22.3;77.28809;95024.55;;;;
2019/08/10 02:19:51;;;;;;;4.05;3.299999;;;;;;;22.3;77.28809;95024.55;;;;
2019/08/10 02:20:52;;;;;;;4.05;3.299999;;;;;;;22.3;77.28809;95024.55;;;;
2019/08/10 02:21:57;;;;;;;4.05;3.299999;;;;;;;22.3;77.28809;95024.55;;;;
2019/08/10 02:22:58;;;;;;;4.05;3.299999;;;;;;;22.3;77.28809;95024.55;;;;
2019/08/10 02:23:59;;;;;;;4.05;3.299999;;;;;;;22.3;77.28809;95024.55;;;;
2019/08/10 02:25:01;;;;;;;4.05;3.299999;;;;;;;22.3;77.28809;95024.55;;;;
2019/08/10 02:26:04;;;;;;;4.05;3.299999;;;;;;;22.3;77.28809;95024.55;;;;
2019/08/10 02:27:07;;;;;;;4.1;3.2;;;;;;;22.28;77.82324;95008.5;;;;
2019/08/10 02:28:08;;;;;;;4.1;3.2;;;;;;;22.28;77.82324;95008.5;;;;
2019/08/10 02:29:09;;;;;;;4.1;3.2;;;;;;;22.28;77.82324;95008.5;;;;
2019/08/10 02:30:10;;;;;;;4.1;3.2;;;;;;;22.28;77.82324;95008.5;;;;
2019/08/10 02:31:13;;;;;;;4.1;3.2;;;;;;;22.28;77.82324;95008.5;;;;
2019/08/10 02:32:14;;;;;;;4.1;3.2;;;;;;;22.28;77.82324;95008.5;;;;
2019/08/10 02:33:15;;;;;;;4.1;3.2;;;;;;;22.28;77.82324;95008.5;;;;
2019/08/10 02:34:17;;;;;;;4.1;3.2;;;;;;;22.28;77.82324;95008.5;;;;
2019/08/10 02:35:18;;;;;;;4.1;3.2;;;;;;;22.28;77.82324;95008.5;;;;
2019/08/10 02:36:20;;;;;;;4.1;3.2;;;;;;;22.28;77.82324;95008.5;;;;
2019/08/10 02:37:22;;;;;;;3.65;3.15;;;;;;;22.18;78.33203;94993.07;;;;
2019/08/10 02:38:23;;;;;;;3.65;3.15;;;;;;;22.18;78.33203;94993.07;;;;
2019/08/10 02:39:24;;;;;;;3.65;3.15;;;;;;;22.18;78.33203;94993.07;;;;
2019/08/10 02:40:25;;;;;;;3.65;3.15;;;;;;;22.18;78.33203;94993.07;;;;
2019/08/10 02:41:29;;;;;;;3.65;3.15;;;;;;;22.18;78.33203;94993.07;;;;
2019/08/10 02:42:30;;;;;;;3.65;3.15;;;;;;;22.18;78.33203;94993.07;;;;
2019/08/10 02:43:31;;;;;;;3.65;3.15;;;;;;;22.18;78.33203;94993.07;;;;
2019/08/10 02:44:32;;;;;;;3.65;3.15;;;;;;;22.18;78.33203;94993.07;;;;
2019/08/10 02:45:33;;;;;;;3.65;3.15;;;;;;;22.18;78.33203;94993.07;;;;
2019/08/10 02:46:38;;;;;;;3.65;3.15;;;;;;;22.18;78.33203;94993.07;;;;
2019/08/10 02:47:39;;;;;;;4.25;3.5;;;;;;;22.15;78.97461;94993.3;;;;
2019/08/10 02:48:41;;;;;;;4.25;3.5;;;;;;;22.15;78.97461;94993.3;;;;
2019/08/10 02:49:42;;;;;;;4.25;3.5;;;;;;;22.15;78.97461;94993.3;;;;
2019/08/10 02:50:43;;;;;;;4.25;3.5;;;;;;;22.15;78.97461;94993.3;;;;
2019/08/10 02:51:48;;;;;;;4.25;3.5;;;;;;;22.15;78.97461;94993.3;;;;
2019/08/10 02:52:49;;;;;;;4.25;3.5;;;;;;;22.15;78.97461;94993.3;;;;
2019/08/10 02:53:50;;;;;;;4.25;3.5;;;;;;;22.15;78.97461;94993.3;;;;
2019/08/10 02:54:51;;;;;;;4.25;3.5;;;;;;;22.15;78.97461;94993.3;;;;
2019/08/10 02:55:52;;;;;;;4.25;3.5;;;;;;;22.15;78.97461;94993.3;;;;
2019/08/10 02:56:53;;;;;;;4.25;3.5;;;;;;;22.15;78.97461;94993.3;;;;
2019/08/10 02:57:54;;;;;;;4.25;3.5;;;;;;;22.15;78.97461;94993.3;;;;
2019/08/10 02:58:55;;;;;;;3.7;3.3;;;;;;;22.06;79.5498;95009.91;;;;
2019/08/10 02:59:57;;;;;;;3.7;3.3;;;;;;;22.06;79.5498;95009.91;;;;
2019/08/10 03:00:58;;;;;;;3.7;3.3;;;;;;;22.06;79.5498;95009.91;;;;
2019/08/10 03:01:59;;;;;;;3.7;3.3;;;;;;;22.06;79.5498;95009.91;;;;
2019/08/10 03:03:00;;;;;;;3.7;3.3;;;;;;;22.06;79.5498;95009.91;;;;
2019/08/10 03:04:02;;;;;;;3.7;3.3;;;;;;;22.06;79.5498;95009.91;;;;
2019/08/10 03:05:04;;;;;;;3.7;3.3;;;;;;;22.06;79.5498;95009.91;;;;
2019/08/10 03:06:06;;;;;;;3.7;3.3;;;;;;;22.06;79.5498;95009.91;;;;
2019/08/10 03:07:10;;;;;;;3.7;3.3;;;;;;;22.06;79.5498;95009.91;;;;
2019/08/10 03:08:11;;;;;;;3.7;3.3;;;;;;;22.06;79.5498;95009.91;;;;
2019/08/10 03:09:12;;;;;;;5.55;3.95;;;;;;;22.03;80.3457;95010.96;;;;
2019/08/10 03:10:14;;;;;;;5.55;3.95;;;;;;;22.03;80.3457;95010.96;;;;
2019/08/10 03:11:16;;;;;;;5.55;3.95;;;;;;;22.03;80.3457;95010.96;;;;
2019/08/10 03:12:17;;;;;;;5.55;3.95;;;;;;;22.03;80.3457;95010.96;;;;
2019/08/10 03:13:18;;;;;;;5.55;3.95;;;;;;;22.03;80.3457;95010.96;;;;
2019/08/10 03:14:20;;;;;;;5.55;3.95;;;;;;;22.03;80.3457;95010.96;;;;
2019/08/10 03:15:21;;;;;;;5.55;3.95;;;;;;;22.03;80.3457;95010.96;;;;
2019/08/10 03:16:25;;;;;;;5.55;3.95;;;;;;;22.03;80.3457;95010.96;;;;
2019/08/10 03:17:26;;;;;;;5.55;3.95;;;;;;;22.03;80.3457;95010.96;;;;
2019/08/10 03:18:27;;;;;;;5.55;3.95;;;;;;;22.03;80.3457;95010.96;;;;
2019/08/10 03:19:28;;;;;;;5.25;4.15;;;;;;;21.79;82.00195;95028.88;;;;
2019/08/10 03:20:29;;;;;;;5.25;4.15;;;;;;;21.79;82.00195;95028.88;;;;
2019/08/10 03:21:33;;;;;;;5.25;4.15;;;;;;;21.79;82.00195;95028.88;;;;
2019/08/10 03:22:34;;;;;;;5.25;4.15;;;;;;;21.79;82.00195;95028.88;;;;
2019/08/10 03:23:35;;;;;;;5.25;4.15;;;;;;;21.79;82.00195;95028.88;;;;
2019/08/10 03:24:36;;;;;;;5.25;4.15;;;;;;;21.79;82.00195;95028.88;;;;
2019/08/10 03:25:38;;;;;;;5.25;4.15;;;;;;;21.79;82.00195;95028.88;;;;
2019/08/10 03:26:39;;;;;;;5.25;4.15;;;;;;;21.79;82.00195;95028.88;;;;
2019/08/10 03:27:40;;;;;;;5.25;4.15;;;;;;;21.79;82.00195;95028.88;;;;
2019/08/10 03:28:41;;;;;;;5.25;4.15;;;;;;;21.79;82.00195;95028.88;;;;
2019/08/10 03:29:42;;;;;;;5.25;4.15;;;;;;;21.79;82.00195;95028.88;;;;
2019/08/10 03:30:43;;;;;;;5.150001;4.400001;;;;;;;21.56;84.75098;95034.89;;;;
2019/08/10 03:31:45;;;;;;;5.150001;4.400001;;;;;;;21.56;84.75098;95034.89;;;;
2019/08/10 03:32:46;;;;;;;5.150001;4.400001;;;;;;;21.56;84.75098;95034.89;;;;
2019/08/10 03:33:47;;;;;;;5.150001;4.400001;;;;;;;21.56;84.75098;95034.89;;;;
2019/08/10 03:34:48;;;;;;;5.150001;4.400001;;;;;;;21.56;84.75098;95034.89;;;;
2019/08/10 03:35:49;;;;;;;5.150001;4.400001;;;;;;;21.56;84.75098;95034.89;;;;
2019/08/10 03:36:53;;;;;;;5.150001;4.400001;;;;;;;21.56;84.75098;95034.89;;;;
2019/08/10 03:37:54;;;;;;;5.150001;4.400001;;;;;;;21.56;84.75098;95034.89;;;;
2019/08/10 03:38:56;;;;;;;5.150001;4.400001;;;;;;;21.56;84.75098;95034.89;;;;
2019/08/10 03:39:57;;;;;;;5.150001;4.400001;;;;;;;21.56;84.75098;95034.89;;;;
2019/08/10 03:40:58;;;;;;;5.1;4.45;;;;;;;21.4;87.56055;95019.48;;;;
2019/08/10 03:41:59;;;;;;;5.1;4.45;;;;;;;21.4;87.56055;95019.48;;;;
2019/08/10 03:43:00;;;;;;;5.1;4.45;;;;;;;21.4;87.56055;95019.48;;;;
2019/08/10 03:44:02;;;;;;;5.1;4.45;;;;;;;21.4;87.56055;95019.48;;;;
2019/08/10 03:45:04;;;;;;;5.1;4.45;;;;;;;21.4;87.56055;95019.48;;;;
2019/08/10 03:46:09;;;;;;;5.1;4.45;;;;;;;21.4;87.56055;95019.48;;;;
2019/08/10 03:47:10;;;;;;;5.1;4.45;;;;;;;21.4;87.56055;95019.48;;;;
2019/08/10 03:48:12;;;;;;;5.1;4.45;;;;;;;21.4;87.56055;95019.48;;;;
2019/08/10 03:49:13;;;;;;;5.1;4.45;;;;;;;21.4;87.56055;95019.48;;;;
2019/08/10 03:50:15;;;;;;;5.1;4.45;;;;;;;21.4;87.56055;95019.48;;;;
2019/08/10 03:51:18;;;;;;;5.25;4.75;;;;;;;21.33;89.55664;95014.01;;;;
2019/08/10 03:52:20;;;;;;;5.25;4.75;;;;;;;21.33;89.55664;95014.01;;;;
2019/08/10 03:53:21;;;;;;;5.25;4.75;;;;;;;21.33;89.55664;95014.01;;;;
2019/08/10 03:54:22;;;;;;;5.25;4.75;;;;;;;21.33;89.55664;95014.01;;;;
2019/08/10 03:55:24;;;;;;;5.25;4.75;;;;;;;21.33;89.55664;95014.01;;;;
2019/08/10 03:56:25;;;;;;;5.25;4.75;;;;;;;21.33;89.55664;95014.01;;;;
2019/08/10 03:57:27;;;;;;;5.25;4.75;;;;;;;21.33;89.55664;95014.01;;;;
2019/08/10 03:58:28;;;;;;;5.25;4.75;;;;;;;21.33;89.55664;95014.01;;;;
2019/08/10 03:59:29;;;;;;;5.25;4.75;;;;;;;21.33;89.55664;95014.01;;;;
2019/08/10 04:00:30;;;;;;;5.25;4.75;;;;;;;21.33;89.55664;95014.01;;;;
2019/08/10 04:01:31;;;;;;;5.25;4.75;;;;;;;21.33;89.55664;95014.01;;;;
2019/08/10 04:02:33;;;;;;;5.349999;4.849999;;;;;;;21.19;90.9248;95012.25;;;;
2019/08/10 04:03:34;;;;;;;5.349999;4.849999;;;;;;;21.19;90.9248;95012.25;;;;
2019/08/10 04:04:35;;;;;;;5.349999;4.849999;;;;;;;21.19;90.9248;95012.25;;;;
2019/08/10 04:05:36;;;;;;;5.349999;4.849999;;;;;;;21.19;90.9248;95012.25;;;;
2019/08/10 04:06:40;;;;;;;5.349999;4.849999;;;;;;;21.19;90.9248;95012.25;;;;
2019/08/10 04:07:41;;;;;;;5.349999;4.849999;;;;;;;21.19;90.9248;95012.25;;;;
2019/08/10 04:08:42;;;;;;;5.349999;4.849999;;;;;;;21.19;90.9248;95012.25;;;;
2019/08/10 04:09:43;;;;;;;5.349999;4.849999;;;;;;;21.19;90.9248;95012.25;;;;
2019/08/10 04:10:44;;;;;;;5.349999;4.849999;;;;;;;21.19;90.9248;95012.25;;;;
2019/08/10 04:11:45;;;;;;;5.349999;4.849999;;;;;;;21.19;90.9248;95012.25;;;;
2019/08/10 04:12:46;;;;;;;5.750001;4.9;;;;;;;21.12;92.21973;95017.76;;;;
2019/08/10 04:13:47;;;;;;;5.750001;4.9;;;;;;;21.12;92.21973;95017.76;;;;
2019/08/10 04:14:49;;;;;;;5.750001;4.9;;;;;;;21.12;92.21973;95017.76;;;;
2019/08/10 04:15:50;;;;;;;5.750001;4.9;;;;;;;21.12;92.21973;95017.76;;;;
2019/08/10 04:16:51;;;;;;;5.750001;4.9;;;;;;;21.12;92.21973;95017.76;;;;
2019/08/10 04:17:52;;;;;;;5.750001;4.9;;;;;;;21.12;92.21973;95017.76;;;;
2019/08/10 04:18:53;;;;;;;5.750001;4.9;;;;;;;21.12;92.21973;95017.76;;;;
2019/08/10 04:19:54;;;;;;;5.750001;4.9;;;;;;;21.12;92.21973;95017.76;;;;
2019/08/10 04:20:55;;;;;;;5.750001;4.9;;;;;;;21.12;92.21973;95017.76;;;;
2019/08/10 04:21:57;;;;;;;5.750001;4.9;;;;;;;21.12;92.21973;95017.76;;;;
2019/08/10 04:22:59;;;;;;;7.999999;5.299999;;;;;;;20.98;93.18262;95029.44;;;;
2019/08/10 04:24:00;;;;;;;7.999999;5.299999;;;;;;;20.98;93.18262;95029.44;;;;
2019/08/10 04:25:01;;;;;;;7.999999;5.299999;;;;;;;20.98;93.18262;95029.44;;;;
2019/08/10 04:26:03;;;;;;;7.999999;5.299999;;;;;;;20.98;93.18262;95029.44;;;;
2019/08/10 04:27:05;;;;;;;7.999999;5.299999;;;;;;;20.98;93.18262;95029.44;;;;
2019/08/10 04:28:06;;;;;;;7.999999;5.299999;;;;;;;20.98;93.18262;95029.44;;;;
2019/08/10 04:29:07;;;;;;;7.999999;5.299999;;;;;;;20.98;93.18262;95029.44;;;;
2019/08/10 04:30:08;;;;;;;7.999999;5.299999;;;;;;;20.98;93.18262;95029.44;;;;
2019/08/10 04:31:11;;;;;;;7.999999;5.299999;;;;;;;20.98;93.18262;95029.44;;;;
2019/08/10 04:32:12;;;;;;;7.999999;5.299999;;;;;;;20.98;93.18262;95029.44;;;;
2019/08/10 04:33:14;;;;;;;7.999999;5.299999;;;;;;;20.98;93.18262;95029.44;;;;
2019/08/10 04:34:15;;;;;;;5.799999;5.25;;;;;;;20.96;94.11328;95040.31;;;;
2019/08/10 04:35:16;;;;;;;5.799999;5.25;;;;;;;20.96;94.11328;95040.31;;;;
2019/08/10 04:36:23;;;;;;;5.799999;5.25;;;;;;;20.96;94.11328;95040.31;;;;
2019/08/10 04:37:24;;;;;;;5.799999;5.25;;;;;;;20.96;94.11328;95040.31;;;;
2019/08/10 04:38:25;;;;;;;5.799999;5.25;;;;;;;20.96;94.11328;95040.31;;;;
2019/08/10 04:39:26;;;;;;;5.799999;5.25;;;;;;;20.96;94.11328;95040.31;;;;
2019/08/10 04:40:27;;;;;;;5.799999;5.25;;;;;;;20.96;94.11328;95040.31;;;;
2019/08/10 04:41:29;;;;;;;5.799999;5.25;;;;;;;20.96;94.11328;95040.31;;;;
2019/08/10 04:42:30;;;;;;;5.799999;5.25;;;;;;;20.96;94.11328;95040.31;;;;
2019/08/10 04:43:31;;;;;;;5.799999;5.25;;;;;;;20.96;94.11328;95040.31;;;;
2019/08/10 04:44:32;;;;;;;7.55;5.5;;;;;;;20.98;94.89258;95040.28;;;;
2019/08/10 04:45:33;;;;;;;7.55;5.5;;;;;;;20.98;94.89258;95040.28;;;;
2019/08/10 04:46:36;;;;;;;7.55;5.5;;;;;;;20.98;94.89258;95040.28;;;;
2019/08/10 04:47:38;;;;;;;7.55;5.5;;;;;;;20.98;94.89258;95040.28;;;;
2019/08/10 04:48:39;;;;;;;7.55;5.5;;;;;;;20.98;94.89258;95040.28;;;;
2019/08/10 04:49:40;;;;;;;7.55;5.5;;;;;;;20.98;94.89258;95040.28;;;;
2019/08/10 04:50:41;;;;;;;7.55;5.5;;;;;;;20.98;94.89258;95040.28;;;;
2019/08/10 04:51:45;;;;;;;7.55;5.5;;;;;;;20.98;94.89258;95040.28;;;;
2019/08/10 04:52:46;;;;;;;7.55;5.5;;;;;;;20.98;94.89258;95040.28;;;;
2019/08/10 04:53:48;;;;;;;7.55;5.5;;;;;;;20.98;94.89258;95040.28;;;;
2019/08/10 04:54:49;;;;;;;5.95;4.7;;;;;;;21.18;95.57813;95050.05;;;;
2019/08/10 04:55:54;;;;;;;5.95;4.7;;;;;;;21.18;95.57813;95050.05;;;;
2019/08/10 04:56:55;;;;;;;5.95;4.7;;;;;;;21.18;95.57813;95050.05;;;;
2019/08/10 04:57:57;;;;;;;5.95;4.7;;;;;;;21.18;95.57813;95050.05;;;;
2019/08/10 04:58:58;;;;;;;5.95;4.7;;;;;;;21.18;95.57813;95050.05;;;;
2019/08/10 04:59:59;;;;;;;5.95;4.7;;;;;;;21.18;95.57813;95050.05;;;;
2019/08/10 05:01:00;;;;;;;5.95;4.7;;;;;;;21.18;95.57813;95050.05;;;;
2019/08/10 05:02:01;;;;;;;5.95;4.7;;;;;;;21.18;95.57813;95050.05;;;;
2019/08/10 05:03:03;;;;;;;5.95;4.7;;;;;;;21.18;95.57813;95050.05;;;;
2019/08/10 05:04:06;;;;;;;5.95;4.7;;;;;;;21.18;95.57813;95050.05;;;;
2019/08/10 05:05:07;;;;;;;5.95;4.7;;;;;;;21.18;95.57813;95050.05;;;;
2019/08/10 05:06:12;;;;;;;5.3;4.75;;;;;;;21.32;96.05469;95067.3;;;;
2019/08/10 05:07:16;;;;;;;5.3;4.75;;;;;;;21.32;96.05469;95067.3;;;;
2019/08/10 05:08:17;;;;;;;5.3;4.75;;;;;;;21.32;96.05469;95067.3;;;;
2019/08/10 05:09:19;;;;;;;5.3;4.75;;;;;;;21.32;96.05469;95067.3;;;;
2019/08/10 05:10:20;;;;;;;5.3;4.75;;;;;;;21.32;96.05469;95067.3;;;;
2019/08/10 05:11:25;;;;;;;5.3;4.75;;;;;;;21.32;96.05469;95067.3;;;;
2019/08/10 05:12:26;;;;;;;5.3;4.75;;;;;;;21.32;96.05469;95067.3;;;;
2019/08/10 05:13:27;;;;;;;5.3;4.75;;;;;;;21.32;96.05469;95067.3;;;;
2019/08/10 05:14:28;;;;;;;5.3;4.75;;;;;;;21.32;96.05469;95067.3;;;;
2019/08/10 05:15:29;;;;;;;5.3;4.75;;;;;;;21.32;96.05469;95067.3;;;;
2019/08/10 05:16:31;;;;;;;4.900001;4.35;;;;;;;21.58;96.20898;95082.53;;;;
2019/08/10 05:17:32;;;;;;;4.900001;4.35;;;;;;;21.58;96.20898;95082.53;;;;
2019/08/10 05:18:33;;;;;;;4.900001;4.35;;;;;;;21.58;96.20898;95082.53;;;;
2019/08/10 05:19:34;;;;;;;4.900001;4.35;;;;;;;21.58;96.20898;95082.53;;;;
2019/08/10 05:20:35;;;;;;;4.900001;4.35;;;;;;;21.58;96.20898;95082.53;;;;
2019/08/10 05:21:39;;;;;;;4.900001;4.35;;;;;;;21.58;96.20898;95082.53;;;;
2019/08/10 05:22:41;;;;;;;4.900001;4.35;;;;;;;21.58;96.20898;95082.53;;;;
2019/08/10 05:23:42;;;;;;;4.900001;4.35;;;;;;;21.58;96.20898;95082.53;;;;
2019/08/10 05:24:43;;;;;;;4.900001;4.35;;;;;;;21.58;96.20898;95082.53;;;;
2019/08/10 05:25:44;;;;;;;4.900001;4.35;;;;;;;21.58;96.20898;95082.53;;;;
2019/08/10 05:26:45;;;;;;;4.9;4.4;;;;;;;21.83;96.07617;95082.51;;;;
2019/08/10 05:27:46;;;;;;;4.9;4.4;;;;;;;21.83;96.07617;95082.51;;;;
2019/08/10 05:28:48;;;;;;;4.9;4.4;;;;;;;21.83;96.07617;95082.51;;;;
2019/08/10 05:29:49;;;;;;;4.9;4.4;;;;;;;21.83;96.07617;95082.51;;;;
2019/08/10 05:30:50;;;;;;;4.9;4.4;;;;;;;21.83;96.07617;95082.51;;;;
2019/08/10 05:31:51;;;;;;;4.9;4.4;;;;;;;21.83;96.07617;95082.51;;;;
2019/08/10 05:32:52;;;;;;;4.9;4.4;;;;;;;21.83;96.07617;95082.51;;;;
2019/08/10 05:33:54;;;;;;;4.9;4.4;;;;;;;21.83;96.07617;95082.51;;;;
2019/08/10 05:34:55;;;;;;;4.9;4.4;;;;;;;21.83;96.07617;95082.51;;;;
2019/08/10 05:35:56;;;;;;;4.9;4.4;;;;;;;21.83;96.07617;95082.51;;;;
2019/08/10 05:36:57;;;;;;;4.9;4.4;;;;;;;21.83;96.07617;95082.51;;;;
2019/08/10 05:37:59;;;;;;;4.8;4.299999;;;;;;;22.06;96.11328;95100.66;;;;
2019/08/10 05:39:00;;;;;;;4.8;4.299999;;;;;;;22.06;96.11328;95100.66;;;;
2019/08/10 05:40:04;;;;;;;4.8;4.299999;;;;;;;22.06;96.11328;95100.66;;;;
2019/08/10 05:41:09;;;;;;;4.8;4.299999;;;;;;;22.06;96.11328;95100.66;;;;
2019/08/10 05:42:10;;;;;;;4.8;4.299999;;;;;;;22.06;96.11328;95100.66;;;;
2019/08/10 05:43:11;;;;;;;4.8;4.299999;;;;;;;22.06;96.11328;95100.66;;;;
2019/08/10 05:44:12;;;;;;;4.8;4.299999;;;;;;;22.06;96.11328;95100.66;;;;
2019/08/10 05:45:13;;;;;;;4.8;4.299999;;;;;;;22.06;96.11328;95100.66;;;;
2019/08/10 05:46:16;;;;;;;4.8;4.299999;;;;;;;22.06;96.11328;95100.66;;;;
2019/08/10 05:47:17;;;;;;;4.8;4.299999;;;;;;;22.06;96.11328;95100.66;;;;
2019/08/10 05:48:18;;;;;;;5.35;4.1;;;;;;;22.2;96.14551;95108.28;;;;
2019/08/10 05:49:19;;;;;;;5.35;4.1;;;;;;;22.2;96.14551;95108.28;;;;